sensor_id;sensor_type;location;lat;lon;timestamp;temperature;humidity
23499;DHT22;11926;48.120;11.562;2022-11-11T00:00:35;7.00;92.30
23499;DHT22;11926;48.120;11.562;2022-11-11T00:03:42;6.90;92.30
23499;DHT22;11926;48.120;11.562;2022-11-11T00:06:49;6.90;92.30
23499;DHT22;11926;48.120;11.562;2022-11-11T00:09:58;6.90;92.30
23499;DHT22;11926;48.120;11.562;2022-11-11T00:13:04;6.90;92.30
23499;DHT22;11926;48.120;11.562;2022-11-11T00:16:14;6.80;92.30
23499;DHT22;11926;48.120;11.562;2022-11-11T00:19:22;6.80;92.50
23499;DHT22;11926;48.120;11.562;2022-11-11T00:22:42;6.80;92.60
23499;DHT22;11926;48.120;11.562;2022-11-11T00:26:06;6.80;92.70
23499;DHT22;11926;48.120;11.562;2022-11-11T00:29:33;6.70;92.80
23499;DHT22;11926;48.120;11.562;2022-11-11T00:32:40;6.70;92.80
23499;DHT22;11926;48.120;11.562;2022-11-11T00:35:45;6.70;92.80
23499;DHT22;11926;48.120;11.562;2022-11-11T00:38:59;6.70;92.80
23499;DHT22;11926;48.120;11.562;2022-11-11T00:42:07;6.70;92.80
23499;DHT22;11926;48.120;11.562;2022-11-11T00:45:13;6.70;92.80
23499;DHT22;11926;48.120;11.562;2022-11-11T00:48:22;6.70;92.70
23499;DHT22;11926;48.120;11.562;2022-11-11T00:51:43;6.60;92.60
23499;DHT22;11926;48.120;11.562;2022-11-11T00:54:49;6.60;92.60
23499;DHT22;11926;48.120;11.562;2022-11-11T00:57:54;6.60;92.60
23499;DHT22;11926;48.120;11.562;2022-11-11T01:01:00;6.60;92.60
23499;DHT22;11926;48.120;11.562;2022-11-11T01:04:08;6.50;92.50
23499;DHT22;11926;48.120;11.562;2022-11-11T01:07:14;6.50;92.50
23499;DHT22;11926;48.120;11.562;2022-11-11T01:10:21;6.50;92.50
23499;DHT22;11926;48.120;11.562;2022-11-11T01:13:44;6.50;92.50
23499;DHT22;11926;48.120;11.562;2022-11-11T01:16:51;6.40;92.40
23499;DHT22;11926;48.120;11.562;2022-11-11T01:19:58;6.40;92.50
23499;DHT22;11926;48.120;11.562;2022-11-11T01:23:06;6.40;92.80
23499;DHT22;11926;48.120;11.562;2022-11-11T01:26:15;6.30;92.40
23499;DHT22;11926;48.120;11.562;2022-11-11T01:29:23;6.30;92.40
23499;DHT22;11926;48.120;11.562;2022-11-11T01:32:30;6.30;92.40
23499;DHT22;11926;48.120;11.562;2022-11-11T01:35:39;6.30;92.40
23499;DHT22;11926;48.120;11.562;2022-11-11T01:38:48;6.30;92.40
23499;DHT22;11926;48.120;11.562;2022-11-11T01:41:56;6.20;92.30
23499;DHT22;11926;48.120;11.562;2022-11-11T01:52:06;6.10;92.40
23499;DHT22;11926;48.120;11.562;2022-11-11T01:55:16;6.10;92.60
23499;DHT22;11926;48.120;11.562;2022-11-11T01:58:23;6.00;92.60
23499;DHT22;11926;48.120;11.562;2022-11-11T02:01:30;6.00;92.70
23499;DHT22;11926;48.120;11.562;2022-11-11T02:04:37;6.00;92.70
23499;DHT22;11926;48.120;11.562;2022-11-11T02:08:03;5.90;92.80
23499;DHT22;11926;48.120;11.562;2022-11-11T02:11:13;5.90;92.90
23499;DHT22;11926;48.120;11.562;2022-11-11T02:14:23;5.90;93.00
23499;DHT22;11926;48.120;11.562;2022-11-11T02:17:48;5.90;93.00
23499;DHT22;11926;48.120;11.562;2022-11-11T02:20:55;5.90;92.90
23499;DHT22;11926;48.120;11.562;2022-11-11T02:24:06;5.90;92.90
23499;DHT22;11926;48.120;11.562;2022-11-11T02:27:16;5.90;92.80
23499;DHT22;11926;48.120;11.562;2022-11-11T02:30:25;5.90;92.80
23499;DHT22;11926;48.120;11.562;2022-11-11T02:33:31;5.90;92.80
23499;DHT22;11926;48.120;11.562;2022-11-11T02:36:39;5.80;92.70
23499;DHT22;11926;48.120;11.562;2022-11-11T02:39:51;5.80;92.70
23499;DHT22;11926;48.120;11.562;2022-11-11T02:43:09;5.80;92.70
23499;DHT22;11926;48.120;11.562;2022-11-11T02:46:16;5.80;92.70
23499;DHT22;11926;48.120;11.562;2022-11-11T02:49:23;5.70;92.60
23499;DHT22;11926;48.120;11.562;2022-11-11T02:52:33;5.80;92.70
23499;DHT22;11926;48.120;11.562;2022-11-11T02:55:41;5.70;92.70
23499;DHT22;11926;48.120;11.562;2022-11-11T02:58:48;5.70;92.80
23499;DHT22;11926;48.120;11.562;2022-11-11T03:01:55;5.60;92.80
23499;DHT22;11926;48.120;11.562;2022-11-11T03:05:01;5.60;92.80
23499;DHT22;11926;48.120;11.562;2022-11-11T03:08:09;5.60;92.80
23499;DHT22;11926;48.120;11.562;2022-11-11T03:11:18;5.60;92.70
23499;DHT22;11926;48.120;11.562;2022-11-11T03:14:32;5.60;92.70
23499;DHT22;11926;48.120;11.562;2022-11-11T03:17:38;5.50;92.70
23499;DHT22;11926;48.120;11.562;2022-11-11T03:20:46;5.50;92.70
23499;DHT22;11926;48.120;11.562;2022-11-11T03:24:26;5.50;92.70
23499;DHT22;11926;48.120;11.562;2022-11-11T03:27:58;5.50;92.70
23499;DHT22;11926;48.120;11.562;2022-11-11T03:31:04;5.50;92.70
23499;DHT22;11926;48.120;11.562;2022-11-11T03:34:11;5.40;92.60
23499;DHT22;11926;48.120;11.562;2022-11-11T03:37:25;5.40;92.60
23499;DHT22;11926;48.120;11.562;2022-11-11T03:40:46;5.30;92.60
23499;DHT22;11926;48.120;11.562;2022-11-11T03:43:53;5.30;92.70
23499;DHT22;11926;48.120;11.562;2022-11-11T03:46:59;5.30;92.70
23499;DHT22;11926;48.120;11.562;2022-11-11T03:50:06;5.30;92.70
23499;DHT22;11926;48.120;11.562;2022-11-11T03:53:13;5.30;92.70
23499;DHT22;11926;48.120;11.562;2022-11-11T03:56:20;5.30;92.70
23499;DHT22;11926;48.120;11.562;2022-11-11T03:59:28;5.30;92.80
23499;DHT22;11926;48.120;11.562;2022-11-11T04:02:38;5.20;92.70
23499;DHT22;11926;48.120;11.562;2022-11-11T04:05:59;5.20;92.80
23499;DHT22;11926;48.120;11.562;2022-11-11T04:09:23;5.20;93.20
23499;DHT22;11926;48.120;11.562;2022-11-11T04:12:47;5.10;92.90
23499;DHT22;11926;48.120;11.562;2022-11-11T04:16:13;5.10;92.90
23499;DHT22;11926;48.120;11.562;2022-11-11T04:19:19;5.10;92.90
23499;DHT22;11926;48.120;11.562;2022-11-11T04:22:43;5.10;92.90
23499;DHT22;11926;48.120;11.562;2022-11-11T04:25:52;5.00;92.90
23499;DHT22;11926;48.120;11.562;2022-11-11T04:28:57;5.10;93.00
23499;DHT22;11926;48.120;11.562;2022-11-11T04:32:23;5.00;93.00
23499;DHT22;11926;48.120;11.562;2022-11-11T04:35:41;5.00;93.00
23499;DHT22;11926;48.120;11.562;2022-11-11T04:38:46;5.00;93.00
23499;DHT22;11926;48.120;11.562;2022-11-11T04:42:10;5.00;93.10
23499;DHT22;11926;48.120;11.562;2022-11-11T04:45:16;5.00;93.10
23499;DHT22;11926;48.120;11.562;2022-11-11T04:48:34;5.00;93.20
23499;DHT22;11926;48.120;11.562;2022-11-11T04:51:40;5.00;93.30
23499;DHT22;11926;48.120;11.562;2022-11-11T04:55:00;5.00;93.30
23499;DHT22;11926;48.120;11.562;2022-11-11T04:58:27;5.00;93.30
23499;DHT22;11926;48.120;11.562;2022-11-11T05:01:35;5.00;93.30
23499;DHT22;11926;48.120;11.562;2022-11-11T05:04:41;5.00;93.20
23499;DHT22;11926;48.120;11.562;2022-11-11T05:07:47;5.00;93.20
23499;DHT22;11926;48.120;11.562;2022-11-11T05:11:07;5.00;93.20
23499;DHT22;11926;48.120;11.562;2022-11-11T05:14:13;4.90;93.20
23499;DHT22;11926;48.120;11.562;2022-11-11T05:17:37;4.90;93.20
23499;DHT22;11926;48.120;11.562;2022-11-11T05:21:03;4.90;93.20
23499;DHT22;11926;48.120;11.562;2022-11-11T05:24:27;4.80;93.20
23499;DHT22;11926;48.120;11.562;2022-11-11T05:27:51;4.80;93.20
23499;DHT22;11926;48.120;11.562;2022-11-11T05:30:57;4.80;93.20
23499;DHT22;11926;48.120;11.562;2022-11-11T05:34:02;4.80;93.20
23499;DHT22;11926;48.120;11.562;2022-11-11T05:37:09;4.80;93.30
23499;DHT22;11926;48.120;11.562;2022-11-11T05:40:15;4.80;93.30
23499;DHT22;11926;48.120;11.562;2022-11-11T05:43:23;4.80;93.40
23499;DHT22;11926;48.120;11.562;2022-11-11T05:46:30;4.80;93.50
23499;DHT22;11926;48.120;11.562;2022-11-11T05:49:37;4.80;93.60
23499;DHT22;11926;48.120;11.562;2022-11-11T05:52:49;4.80;93.70
23499;DHT22;11926;48.120;11.562;2022-11-11T05:55:55;4.80;93.80
23499;DHT22;11926;48.120;11.562;2022-11-11T05:59:02;4.90;93.90
23499;DHT22;11926;48.120;11.562;2022-11-11T06:02:09;4.80;93.90
23499;DHT22;11926;48.120;11.562;2022-11-11T06:05:16;4.90;94.00
23499;DHT22;11926;48.120;11.562;2022-11-11T06:08:25;4.90;94.00
23499;DHT22;11926;48.120;11.562;2022-11-11T06:11:32;4.90;94.00
23499;DHT22;11926;48.120;11.562;2022-11-11T06:14:38;4.90;94.00
23499;DHT22;11926;48.120;11.562;2022-11-11T06:17:45;4.90;94.00
23499;DHT22;11926;48.120;11.562;2022-11-11T06:20:53;4.90;94.00
23499;DHT22;11926;48.120;11.562;2022-11-11T06:24:01;4.90;93.90
23499;DHT22;11926;48.120;11.562;2022-11-11T06:27:08;4.90;93.90
23499;DHT22;11926;48.120;11.562;2022-11-11T06:30:15;4.90;94.00
23499;DHT22;11926;48.120;11.562;2022-11-11T06:33:42;4.90;93.90
23499;DHT22;11926;48.120;11.562;2022-11-11T06:36:49;4.90;93.90
23499;DHT22;11926;48.120;11.562;2022-11-11T06:39:57;4.90;93.90
23499;DHT22;11926;48.120;11.562;2022-11-11T06:43:04;4.90;93.90
23499;DHT22;11926;48.120;11.562;2022-11-11T06:46:16;4.90;93.90
23499;DHT22;11926;48.120;11.562;2022-11-11T06:49:23;4.90;93.90
23499;DHT22;11926;48.120;11.562;2022-11-11T06:52:30;4.90;93.90
23499;DHT22;11926;48.120;11.562;2022-11-11T06:55:38;4.90;93.90
23499;DHT22;11926;48.120;11.562;2022-11-11T06:58:45;4.90;94.00
23499;DHT22;11926;48.120;11.562;2022-11-11T07:01:52;4.90;94.00
23499;DHT22;11926;48.120;11.562;2022-11-11T07:04:59;4.90;94.00
23499;DHT22;11926;48.120;11.562;2022-11-11T07:08:07;5.00;94.10
23499;DHT22;11926;48.120;11.562;2022-11-11T07:11:16;5.00;94.10
23499;DHT22;11926;48.120;11.562;2022-11-11T07:14:23;5.00;94.10
23499;DHT22;11926;48.120;11.562;2022-11-11T07:17:32;5.10;94.20
23499;DHT22;11926;48.120;11.562;2022-11-11T07:20:39;5.10;94.20
23499;DHT22;11926;48.120;11.562;2022-11-11T07:23:46;5.10;94.20
23499;DHT22;11926;48.120;11.562;2022-11-11T07:26:55;5.20;94.20
23499;DHT22;11926;48.120;11.562;2022-11-11T07:30:05;5.20;94.20
23499;DHT22;11926;48.120;11.562;2022-11-11T07:33:12;5.30;94.30
23499;DHT22;11926;48.120;11.562;2022-11-11T07:36:27;5.30;94.40
23499;DHT22;11926;48.120;11.562;2022-11-11T07:39:34;5.40;94.40
23499;DHT22;11926;48.120;11.562;2022-11-11T07:42:43;5.50;94.50
23499;DHT22;11926;48.120;11.562;2022-11-11T07:45:50;5.60;94.60
23499;DHT22;11926;48.120;11.562;2022-11-11T07:48:57;5.70;94.60
23499;DHT22;11926;48.120;11.562;2022-11-11T07:52:04;5.70;94.70
23499;DHT22;11926;48.120;11.562;2022-11-11T07:55:11;5.80;94.70
23499;DHT22;11926;48.120;11.562;2022-11-11T07:58:19;5.90;94.80
23499;DHT22;11926;48.120;11.562;2022-11-11T08:01:27;6.00;94.80
23499;DHT22;11926;48.120;11.562;2022-11-11T08:04:34;6.10;94.80
23499;DHT22;11926;48.120;11.562;2022-11-11T08:07:44;6.20;94.90
23499;DHT22;11926;48.120;11.562;2022-11-11T08:10:53;6.30;95.00
23499;DHT22;11926;48.120;11.562;2022-11-11T08:14:01;6.50;95.10
23499;DHT22;11926;48.120;11.562;2022-11-11T08:17:07;6.60;95.20
23499;DHT22;11926;48.120;11.562;2022-11-11T08:20:14;6.70;95.20
23499;DHT22;11926;48.120;11.562;2022-11-11T08:23:21;6.80;95.20
23499;DHT22;11926;48.120;11.562;2022-11-11T08:26:56;6.90;95.30
23499;DHT22;11926;48.120;11.562;2022-11-11T08:30:06;6.90;95.30
23499;DHT22;11926;48.120;11.562;2022-11-11T08:33:13;7.10;95.40
23499;DHT22;11926;48.120;11.562;2022-11-11T08:36:37;7.20;95.40
23499;DHT22;11926;48.120;11.562;2022-11-11T08:39:44;7.30;95.40
23499;DHT22;11926;48.120;11.562;2022-11-11T08:42:55;7.40;95.40
23499;DHT22;11926;48.120;11.562;2022-11-11T08:46:04;7.50;95.40
23499;DHT22;11926;48.120;11.562;2022-11-11T08:49:11;7.50;95.50
23499;DHT22;11926;48.120;11.562;2022-11-11T08:52:18;7.60;95.80
23499;DHT22;11926;48.120;11.562;2022-11-11T08:55:24;7.70;95.40
23499;DHT22;11926;48.120;11.562;2022-11-11T08:58:31;7.70;95.30
23499;DHT22;11926;48.120;11.562;2022-11-11T09:01:39;7.80;95.30
23499;DHT22;11926;48.120;11.562;2022-11-11T09:04:46;7.90;95.40
23499;DHT22;11926;48.120;11.562;2022-11-11T09:08:00;8.00;95.40
23499;DHT22;11926;48.120;11.562;2022-11-11T09:11:07;8.10;95.40
23499;DHT22;11926;48.120;11.562;2022-11-11T09:14:14;8.20;95.40
23499;DHT22;11926;48.120;11.562;2022-11-11T09:17:22;8.30;95.30
23499;DHT22;11926;48.120;11.562;2022-11-11T09:20:29;8.50;95.20
23499;DHT22;11926;48.120;11.562;2022-11-11T09:23:35;8.60;95.10
23499;DHT22;11926;48.120;11.562;2022-11-11T09:26:42;8.80;95.10
23499;DHT22;11926;48.120;11.562;2022-11-11T09:29:49;8.90;95.20
23499;DHT22;11926;48.120;11.562;2022-11-11T09:33:02;9.10;94.90
23499;DHT22;11926;48.120;11.562;2022-11-11T09:36:09;9.20;94.70
23499;DHT22;11926;48.120;11.562;2022-11-11T09:39:16;9.40;94.70
23499;DHT22;11926;48.120;11.562;2022-11-11T09:42:32;9.60;94.50
23499;DHT22;11926;48.120;11.562;2022-11-11T09:45:50;9.70;94.30
23499;DHT22;11926;48.120;11.562;2022-11-11T09:49:17;9.90;94.20
23499;DHT22;11926;48.120;11.562;2022-11-11T09:52:30;10.10;94.00
23499;DHT22;11926;48.120;11.562;2022-11-11T09:55:40;10.20;93.80
23499;DHT22;11926;48.120;11.562;2022-11-11T09:58:51;10.40;93.80
23499;DHT22;11926;48.120;11.562;2022-11-11T10:02:03;10.50;93.70
23499;DHT22;11926;48.120;11.562;2022-11-11T10:05:21;10.70;93.60
23499;DHT22;11926;48.120;11.562;2022-11-11T10:08:36;10.80;93.10
23499;DHT22;11926;48.120;11.562;2022-11-11T10:11:53;11.00;93.00
23499;DHT22;11926;48.120;11.562;2022-11-11T10:15:11;11.10;92.60
23499;DHT22;11926;48.120;11.562;2022-11-11T10:18:29;11.30;92.40
23499;DHT22;11926;48.120;11.562;2022-11-11T10:21:44;11.50;92.40
23499;DHT22;11926;48.120;11.562;2022-11-11T10:25:20;11.60;92.10
23499;DHT22;11926;48.120;11.562;2022-11-11T10:28:30;11.80;91.80
23499;DHT22;11926;48.120;11.562;2022-11-11T10:31:40;12.00;91.60
23499;DHT22;11926;48.120;11.562;2022-11-11T10:34:47;12.30;91.40
23499;DHT22;11926;48.120;11.562;2022-11-11T10:38:02;12.50;91.10
23499;DHT22;11926;48.120;11.562;2022-11-11T10:41:20;12.70;90.70
23499;DHT22;11926;48.120;11.562;2022-11-11T10:44:31;12.90;90.00
23499;DHT22;11926;48.120;11.562;2022-11-11T10:47:46;13.10;89.80
23499;DHT22;11926;48.120;11.562;2022-11-11T10:50:58;13.30;89.40
23499;DHT22;11926;48.120;11.562;2022-11-11T10:54:10;13.50;88.60
23499;DHT22;11926;48.120;11.562;2022-11-11T10:57:23;13.60;88.00
23499;DHT22;11926;48.120;11.562;2022-11-11T11:00:32;13.80;87.60
23499;DHT22;11926;48.120;11.562;2022-11-11T11:03:51;14.00;87.30
23499;DHT22;11926;48.120;11.562;2022-11-11T11:07:01;14.20;86.20
23499;DHT22;11926;48.120;11.562;2022-11-11T11:10:15;14.30;85.70
23499;DHT22;11926;48.120;11.562;2022-11-11T11:13:31;14.40;84.50
23499;DHT22;11926;48.120;11.562;2022-11-11T11:16:48;14.50;84.10
23499;DHT22;11926;48.120;11.562;2022-11-11T11:20:08;14.60;82.30
23499;DHT22;11926;48.120;11.562;2022-11-11T11:23:35;14.70;82.00
23499;DHT22;11926;48.120;11.562;2022-11-11T11:26:46;14.90;82.30
23499;DHT22;11926;48.120;11.562;2022-11-11T11:29:53;15.00;80.90
23499;DHT22;11926;48.120;11.562;2022-11-11T11:33:01;15.10;80.50
23499;DHT22;11926;48.120;11.562;2022-11-11T11:36:15;15.10;80.90
23499;DHT22;11926;48.120;11.562;2022-11-11T11:39:32;15.20;81.00
23499;DHT22;11926;48.120;11.562;2022-11-11T11:42:40;15.40;80.50
23499;DHT22;11926;48.120;11.562;2022-11-11T11:45:54;15.50;80.30
23499;DHT22;11926;48.120;11.562;2022-11-11T11:49:18;15.70;79.80
23499;DHT22;11926;48.120;11.562;2022-11-11T11:52:36;15.80;79.00
23499;DHT22;11926;48.120;11.562;2022-11-11T11:55:52;15.90;79.40
23499;DHT22;11926;48.120;11.562;2022-11-11T11:59:08;15.90;78.60
23499;DHT22;11926;48.120;11.562;2022-11-11T12:02:36;16.00;78.80
23499;DHT22;11926;48.120;11.562;2022-11-11T12:05:49;16.00;78.40
23499;DHT22;11926;48.120;11.562;2022-11-11T12:09:06;16.00;78.00
23499;DHT22;11926;48.120;11.562;2022-11-11T12:12:22;15.90;76.90
23499;DHT22;11926;48.120;11.562;2022-11-11T12:15:38;15.90;77.70
23499;DHT22;11926;48.120;11.562;2022-11-11T12:19:00;15.90;78.10
23499;DHT22;11926;48.120;11.562;2022-11-11T12:22:24;15.90;77.70
23499;DHT22;11926;48.120;11.562;2022-11-11T12:25:42;15.90;77.60
23499;DHT22;11926;48.120;11.562;2022-11-11T12:29:09;15.80;77.30
23499;DHT22;11926;48.120;11.562;2022-11-11T12:32:33;15.90;77.50
23499;DHT22;11926;48.120;11.562;2022-11-11T12:35:59;15.90;77.50
23499;DHT22;11926;48.120;11.562;2022-11-11T12:39:28;15.90;77.30
23499;DHT22;11926;48.120;11.562;2022-11-11T12:42:46;16.00;76.70
23499;DHT22;11926;48.120;11.562;2022-11-11T12:46:04;16.10;77.10
23499;DHT22;11926;48.120;11.562;2022-11-11T12:49:35;16.10;76.20
23499;DHT22;11926;48.120;11.562;2022-11-11T12:52:55;16.10;76.30
23499;DHT22;11926;48.120;11.562;2022-11-11T12:56:12;16.10;76.00
23499;DHT22;11926;48.120;11.562;2022-11-11T12:59:26;16.10;76.30
23499;DHT22;11926;48.120;11.562;2022-11-11T13:02:53;16.10;76.10
23499;DHT22;11926;48.120;11.562;2022-11-11T13:06:16;16.20;76.30
23499;DHT22;11926;48.120;11.562;2022-11-11T13:09:33;16.20;76.30
23499;DHT22;11926;48.120;11.562;2022-11-11T13:12:46;16.10;76.10
23499;DHT22;11926;48.120;11.562;2022-11-11T13:15:56;16.00;76.30
23499;DHT22;11926;48.120;11.562;2022-11-11T13:19:11;15.90;75.80
23499;DHT22;11926;48.120;11.562;2022-11-11T13:22:27;15.80;76.50
23499;DHT22;11926;48.120;11.562;2022-11-11T13:25:36;15.70;76.30
23499;DHT22;11926;48.120;11.562;2022-11-11T13:28:48;15.60;76.50
23499;DHT22;11926;48.120;11.562;2022-11-11T13:31:57;15.50;76.70
23499;DHT22;11926;48.120;11.562;2022-11-11T13:35:17;15.50;76.90
23499;DHT22;11926;48.120;11.562;2022-11-11T13:38:29;15.50;76.90
23499;DHT22;11926;48.120;11.562;2022-11-11T13:41:39;15.50;76.90
23499;DHT22;11926;48.120;11.562;2022-11-11T13:44:51;15.50;77.30
23499;DHT22;11926;48.120;11.562;2022-11-11T13:47:58;15.50;77.50
23499;DHT22;11926;48.120;11.562;2022-11-11T13:51:22;15.40;77.70
23499;DHT22;11926;48.120;11.562;2022-11-11T13:54:33;15.40;77.70
23499;DHT22;11926;48.120;11.562;2022-11-11T13:57:48;15.20;77.80
23499;DHT22;11926;48.120;11.562;2022-11-11T14:00:58;15.20;78.30
23499;DHT22;11926;48.120;11.562;2022-11-11T14:04:07;15.20;78.30
23499;DHT22;11926;48.120;11.562;2022-11-11T14:20:46;14.90;78.90
23499;DHT22;11926;48.120;11.562;2022-11-11T14:23:54;15.00;78.70
23499;DHT22;11926;48.120;11.562;2022-11-11T14:27:03;15.10;78.10
23499;DHT22;11926;48.120;11.562;2022-11-11T14:30:35;15.30;77.60
23499;DHT22;11926;48.120;11.562;2022-11-11T14:33:47;15.50;76.70
23499;DHT22;11926;48.120;11.562;2022-11-11T14:37:02;15.70;76.60
23499;DHT22;11926;48.120;11.562;2022-11-11T14:40:12;15.90;75.80
23499;DHT22;11926;48.120;11.562;2022-11-11T14:43:39;16.00;75.50
23499;DHT22;11926;48.120;11.562;2022-11-11T14:50:41;16.00;75.40
23499;DHT22;11926;48.120;11.562;2022-11-11T14:57:03;15.80;75.60
23499;DHT22;11926;48.120;11.562;2022-11-11T15:00:15;15.70;75.90
23499;DHT22;11926;48.120;11.562;2022-11-11T15:03:25;15.50;75.40
23499;DHT22;11926;48.120;11.562;2022-11-11T15:06:41;15.30;76.40
23499;DHT22;11926;48.120;11.562;2022-11-11T15:10:03;15.10;77.00
23499;DHT22;11926;48.120;11.562;2022-11-11T15:13:38;14.90;77.40
23499;DHT22;11926;48.120;11.562;2022-11-11T15:16:57;14.70;77.90
23499;DHT22;11926;48.120;11.562;2022-11-11T15:20:27;14.50;78.50
23499;DHT22;11926;48.120;11.562;2022-11-11T15:23:41;14.30;78.90
23499;DHT22;11926;48.120;11.562;2022-11-11T15:26:59;14.20;79.40
23499;DHT22;11926;48.120;11.562;2022-11-11T15:30:13;14.00;79.60
23499;DHT22;11926;48.120;11.562;2022-11-11T15:33:31;13.90;80.10
23499;DHT22;11926;48.120;11.562;2022-11-11T15:36:51;13.70;80.50
23499;DHT22;11926;48.120;11.562;2022-11-11T15:39:59;13.60;80.90
23499;DHT22;11926;48.120;11.562;2022-11-11T15:43:09;13.50;81.20
23499;DHT22;11926;48.120;11.562;2022-11-11T15:46:22;13.30;81.60
23499;DHT22;11926;48.120;11.562;2022-11-11T15:49:46;13.20;82.20
23499;DHT22;11926;48.120;11.562;2022-11-11T15:52:54;13.00;82.80
23499;DHT22;11926;48.120;11.562;2022-11-11T15:56:02;12.90;83.20
23499;DHT22;11926;48.120;11.562;2022-11-11T15:59:17;12.90;83.70
23499;DHT22;11926;48.120;11.562;2022-11-11T16:02:26;12.80;83.70
23499;DHT22;11926;48.120;11.562;2022-11-11T16:05:34;12.70;83.80
23499;DHT22;11926;48.120;11.562;2022-11-11T16:08:41;12.70;84.10
23499;DHT22;11926;48.120;11.562;2022-11-11T16:11:50;12.50;84.90
23499;DHT22;11926;48.120;11.562;2022-11-11T16:14:59;12.40;84.10
23499;DHT22;11926;48.120;11.562;2022-11-11T16:18:12;12.30;84.30
23499;DHT22;11926;48.120;11.562;2022-11-11T16:21:24;12.20;84.30
23499;DHT22;11926;48.120;11.562;2022-11-11T16:24:33;12.10;84.50
23499;DHT22;11926;48.120;11.562;2022-11-11T16:27:44;12.00;84.70
23499;DHT22;11926;48.120;11.562;2022-11-11T16:30:51;11.90;85.00
23499;DHT22;11926;48.120;11.562;2022-11-11T16:33:59;11.80;85.20
23499;DHT22;11926;48.120;11.562;2022-11-11T16:37:07;11.70;85.30
23499;DHT22;11926;48.120;11.562;2022-11-11T16:40:33;11.60;85.40
23499;DHT22;11926;48.120;11.562;2022-11-11T16:43:42;11.50;85.40
23499;DHT22;11926;48.120;11.562;2022-11-11T16:46:48;11.40;85.60
23499;DHT22;11926;48.120;11.562;2022-11-11T16:50:02;11.30;85.80
23499;DHT22;11926;48.120;11.562;2022-11-11T16:53:24;11.30;85.80
23499;DHT22;11926;48.120;11.562;2022-11-11T16:56:33;11.20;85.80
23499;DHT22;11926;48.120;11.562;2022-11-11T16:59:44;11.10;86.00
23499;DHT22;11926;48.120;11.562;2022-11-11T17:03:07;11.00;86.10
23499;DHT22;11926;48.120;11.562;2022-11-11T17:06:14;10.90;86.20
23499;DHT22;11926;48.120;11.562;2022-11-11T17:09:29;10.90;86.30
23499;DHT22;11926;48.120;11.562;2022-11-11T17:12:37;10.80;86.60
23499;DHT22;11926;48.120;11.562;2022-11-11T17:15:45;10.70;86.60
23499;DHT22;11926;48.120;11.562;2022-11-11T17:18:51;10.60;86.80
23499;DHT22;11926;48.120;11.562;2022-11-11T17:22:05;10.50;86.90
23499;DHT22;11926;48.120;11.562;2022-11-11T17:25:15;10.50;87.00
23499;DHT22;11926;48.120;11.562;2022-11-11T17:28:22;10.40;87.10
23499;DHT22;11926;48.120;11.562;2022-11-11T17:31:30;10.30;87.20
23499;DHT22;11926;48.120;11.562;2022-11-11T17:34:37;10.30;87.40
23499;DHT22;11926;48.120;11.562;2022-11-11T17:37:43;10.20;87.50
23499;DHT22;11926;48.120;11.562;2022-11-11T17:40:49;10.10;87.70
23499;DHT22;11926;48.120;11.562;2022-11-11T17:43:56;10.10;88.00
23499;DHT22;11926;48.120;11.562;2022-11-11T17:47:04;10.00;88.40
23499;DHT22;11926;48.120;11.562;2022-11-11T17:50:10;9.90;88.50
23499;DHT22;11926;48.120;11.562;2022-11-11T17:53:17;9.90;88.70
23499;DHT22;11926;48.120;11.562;2022-11-11T17:56:23;9.80;88.90
23499;DHT22;11926;48.120;11.562;2022-11-11T17:59:30;9.70;89.10
23499;DHT22;11926;48.120;11.562;2022-11-11T18:02:38;9.70;89.30
23499;DHT22;11926;48.120;11.562;2022-11-11T18:05:45;9.70;89.50
23499;DHT22;11926;48.120;11.562;2022-11-11T18:08:51;9.60;89.60
23499;DHT22;11926;48.120;11.562;2022-11-11T18:11:57;9.60;89.60
23499;DHT22;11926;48.120;11.562;2022-11-11T18:15:06;9.60;89.70
23499;DHT22;11926;48.120;11.562;2022-11-11T18:18:15;9.50;89.80
23499;DHT22;11926;48.120;11.562;2022-11-11T18:21:21;9.50;89.90
23499;DHT22;11926;48.120;11.562;2022-11-11T18:24:28;9.40;89.90
23499;DHT22;11926;48.120;11.562;2022-11-11T18:27:37;9.40;90.00
23499;DHT22;11926;48.120;11.562;2022-11-11T18:30:44;9.40;90.00
23499;DHT22;11926;48.120;11.562;2022-11-11T18:33:52;9.30;90.00
23499;DHT22;11926;48.120;11.562;2022-11-11T18:36:59;9.30;90.20
23499;DHT22;11926;48.120;11.562;2022-11-11T18:40:06;9.30;90.50
23499;DHT22;11926;48.120;11.562;2022-11-11T18:43:13;9.20;90.50
23499;DHT22;11926;48.120;11.562;2022-11-11T18:46:21;9.20;90.60
23499;DHT22;11926;48.120;11.562;2022-11-11T18:49:30;9.20;90.70
23499;DHT22;11926;48.120;11.562;2022-11-11T18:52:37;9.20;90.80
23499;DHT22;11926;48.120;11.562;2022-11-11T18:55:44;9.10;90.70
23499;DHT22;11926;48.120;11.562;2022-11-11T18:58:58;9.10;90.80
23499;DHT22;11926;48.120;11.562;2022-11-11T19:02:07;9.10;90.90
23499;DHT22;11926;48.120;11.562;2022-11-11T19:05:15;9.10;90.90
23499;DHT22;11926;48.120;11.562;2022-11-11T19:08:22;9.10;90.90
23499;DHT22;11926;48.120;11.562;2022-11-11T19:11:29;9.00;90.90
23499;DHT22;11926;48.120;11.562;2022-11-11T19:14:38;9.00;91.00
23499;DHT22;11926;48.120;11.562;2022-11-11T19:17:44;8.90;91.00
23499;DHT22;11926;48.120;11.562;2022-11-11T19:20:52;8.90;91.00
23499;DHT22;11926;48.120;11.562;2022-11-11T19:24:00;8.90;91.10
23499;DHT22;11926;48.120;11.562;2022-11-11T19:27:10;8.90;91.10
23499;DHT22;11926;48.120;11.562;2022-11-11T19:30:18;8.80;91.10
23499;DHT22;11926;48.120;11.562;2022-11-11T19:33:24;8.80;91.10
23499;DHT22;11926;48.120;11.562;2022-11-11T19:36:33;8.80;91.20
23499;DHT22;11926;48.120;11.562;2022-11-11T19:39:41;8.70;91.20
23499;DHT22;11926;48.120;11.562;2022-11-11T19:42:48;8.70;91.20
23499;DHT22;11926;48.120;11.562;2022-11-11T19:45:58;8.70;91.30
23499;DHT22;11926;48.120;11.562;2022-11-11T19:49:05;8.70;91.30
23499;DHT22;11926;48.120;11.562;2022-11-11T19:52:13;8.70;91.40
23499;DHT22;11926;48.120;11.562;2022-11-11T19:55:20;8.60;91.40
23499;DHT22;11926;48.120;11.562;2022-11-11T19:58:27;8.60;91.40
23499;DHT22;11926;48.120;11.562;2022-11-11T20:01:34;8.60;91.40
23499;DHT22;11926;48.120;11.562;2022-11-11T20:04:41;8.60;91.50
23499;DHT22;11926;48.120;11.562;2022-11-11T20:07:53;8.50;91.50
23499;DHT22;11926;48.120;11.562;2022-11-11T20:11:05;8.50;91.50
23499;DHT22;11926;48.120;11.562;2022-11-11T20:14:12;8.50;91.50
23499;DHT22;11926;48.120;11.562;2022-11-11T20:17:18;8.40;91.50
23499;DHT22;11926;48.120;11.562;2022-11-11T20:20:24;8.40;91.60
23499;DHT22;11926;48.120;11.562;2022-11-11T20:23:34;8.40;91.60
23499;DHT22;11926;48.120;11.562;2022-11-11T20:26:40;8.30;91.50
23499;DHT22;11926;48.120;11.562;2022-11-11T20:29:47;8.30;91.60